sensor_id;sensor_type;location;lat;lon;timestamp;temperature;humidity
28171;DHT22;15458;53.346;-1.688;2023-02-28T07:25:03;5.00;99.90
28171;DHT22;15458;53.346;-1.688;2023-02-28T07:27:29;4.90;99.90
28171;DHT22;15458;53.346;-1.688;2023-02-28T07:29:55;4.90;99.90
28171;DHT22;15458;53.346;-1.688;2023-02-28T07:32:20;4.90;99.90
28171;DHT22;15458;53.346;-1.688;2023-02-28T07:34:49;4.90;99.90
28171;DHT22;15458;53.346;-1.688;2023-02-28T07:37:15;5.00;99.90
28171;DHT22;15458;53.346;-1.688;2023-02-28T07:39:41;5.00;99.90
28171;DHT22;15458;53.346;-1.688;2023-02-28T07:42:09;5.00;99.90
28171;DHT22;15458;53.346;-1.688;2023-02-28T07:44:38;5.00;99.90
28171;DHT22;15458;53.346;-1.688;2023-02-28T07:47:09;5.00;99.90
28171;DHT22;15458;53.346;-1.688;2023-02-28T07:49:36;5.00;99.90
28171;DHT22;15458;53.346;-1.688;2023-02-28T07:52:03;5.00;99.90
28171;DHT22;15458;53.346;-1.688;2023-02-28T07:54:29;5.00;99.90
28171;DHT22;15458;53.346;-1.688;2023-02-28T07:56:55;5.00;99.90
28171;DHT22;15458;53.346;-1.688;2023-02-28T07:59:27;5.00;99.90
28171;DHT22;15458;53.346;-1.688;2023-02-28T08:01:52;5.00;99.90
28171;DHT22;15458;53.346;-1.688;2023-02-28T08:04:18;5.10;99.90
28171;DHT22;15458;53.346;-1.688;2023-02-28T08:06:58;5.10;99.90
28171;DHT22;15458;53.346;-1.688;2023-02-28T08:09:44;5.10;99.90
28171;DHT22;15458;53.346;-1.688;2023-02-28T08:12:11;5.10;99.90
28171;DHT22;15458;53.346;-1.688;2023-02-28T08:14:37;5.20;99.90
28171;DHT22;15458;53.346;-1.688;2023-02-28T08:17:04;5.20;99.90
28171;DHT22;15458;53.346;-1.688;2023-02-28T08:19:30;5.20;99.90
28171;DHT22;15458;53.346;-1.688;2023-02-28T08:21:58;5.20;99.90
28171;DHT22;15458;53.346;-1.688;2023-02-28T08:24:24;5.20;99.90
28171;DHT22;15458;53.346;-1.688;2023-02-28T08:26:50;5.20;99.90
28171;DHT22;15458;53.346;-1.688;2023-02-28T08:29:16;5.20;99.90
28171;DHT22;15458;53.346;-1.688;2023-02-28T08:31:42;5.30;99.90
28171;DHT22;15458;53.346;-1.688;2023-02-28T08:34:14;5.20;99.90
28171;DHT22;15458;53.346;-1.688;2023-02-28T08:36:40;5.30;99.90
28171;DHT22;15458;53.346;-1.688;2023-02-28T08:39:07;5.30;99.90
28171;DHT22;15458;53.346;-1.688;2023-02-28T08:41:33;5.30;99.90
28171;DHT22;15458;53.346;-1.688;2023-02-28T08:43:59;5.30;99.90
28171;DHT22;15458;53.346;-1.688;2023-02-28T08:46:25;5.40;99.90
28171;DHT22;15458;53.346;-1.688;2023-02-28T08:48:53;5.40;99.90
28171;DHT22;15458;53.346;-1.688;2023-02-28T08:51:19;5.40;99.90
28171;DHT22;15458;53.346;-1.688;2023-02-28T08:53:55;5.40;99.90
28171;DHT22;15458;53.346;-1.688;2023-02-28T08:56:23;5.40;99.90
28171;DHT22;15458;53.346;-1.688;2023-02-28T08:58:49;5.40;99.90
28171;DHT22;15458;53.346;-1.688;2023-02-28T09:01:20;5.50;99.90
28171;DHT22;15458;53.346;-1.688;2023-02-28T09:03:48;5.50;99.90
28171;DHT22;15458;53.346;-1.688;2023-02-28T09:06:16;5.60;99.90
28171;DHT22;15458;53.346;-1.688;2023-02-28T09:08:42;5.60;99.90
28171;DHT22;15458;53.346;-1.688;2023-02-28T09:11:09;5.60;99.90
28171;DHT22;15458;53.346;-1.688;2023-02-28T09:13:35;5.60;99.90
28171;DHT22;15458;53.346;-1.688;2023-02-28T09:16:03;5.70;99.90
28171;DHT22;15458;53.346;-1.688;2023-02-28T09:18:30;5.80;99.90
28171;DHT22;15458;53.346;-1.688;2023-02-28T09:20:56;5.80;99.90
28171;DHT22;15458;53.346;-1.688;2023-02-28T09:23:23;5.80;99.90
28171;DHT22;15458;53.346;-1.688;2023-02-28T09:25:54;5.90;99.90
28171;DHT22;15458;53.346;-1.688;2023-02-28T09:28:21;5.90;99.90
28171;DHT22;15458;53.346;-1.688;2023-02-28T09:30:49;5.90;99.90
28171;DHT22;15458;53.346;-1.688;2023-02-28T09:33:17;5.90;99.90
28171;DHT22;15458;53.346;-1.688;2023-02-28T09:35:44;5.90;99.90
28171;DHT22;15458;53.346;-1.688;2023-02-28T09:38:10;5.90;99.90
28171;DHT22;15458;53.346;-1.688;2023-02-28T09:40:50;5.90;99.90
28171;DHT22;15458;53.346;-1.688;2023-02-28T09:43:18;6.00;99.90
28171;DHT22;15458;53.346;-1.688;2023-02-28T09:46:02;6.00;99.90
28171;DHT22;15458;53.346;-1.688;2023-02-28T09:48:39;6.00;99.90
28171;DHT22;15458;53.346;-1.688;2023-02-28T09:54:12;6.00;99.90
28171;DHT22;15458;53.346;-1.688;2023-02-28T09:56:42;6.10;99.90
28171;DHT22;15458;53.346;-1.688;2023-02-28T09:59:24;6.00;99.90
28171;DHT22;15458;53.346;-1.688;2023-02-28T10:04:57;6.00;99.90
28171;DHT22;15458;53.346;-1.688;2023-02-28T10:10:35;6.10;99.90
28171;DHT22;15458;53.346;-1.688;2023-02-28T10:13:05;6.10;99.90
28171;DHT22;15458;53.346;-1.688;2023-02-28T10:15:33;6.20;99.90
28171;DHT22;15458;53.346;-1.688;2023-02-28T10:18:05;6.20;99.90
28171;DHT22;15458;53.346;-1.688;2023-02-28T10:20:38;6.30;99.90
28171;DHT22;15458;53.346;-1.688;2023-02-28T10:23:13;6.30;99.90
28171;DHT22;15458;53.346;-1.688;2023-02-28T10:25:45;6.40;99.90
28171;DHT22;15458;53.346;-1.688;2023-02-28T10:28:15;6.50;99.90
28171;DHT22;15458;53.346;-1.688;2023-02-28T10:30:53;6.60;99.90
28171;DHT22;15458;53.346;-1.688;2023-02-28T10:35:47;6.80;99.90
28171;DHT22;15458;53.346;-1.688;2023-02-28T10:38:22;7.10;99.90
28171;DHT22;15458;53.346;-1.688;2023-02-28T10:40:48;7.40;99.90
28171;DHT22;15458;53.346;-1.688;2023-02-28T10:43:18;7.90;99.90
28171;DHT22;15458;53.346;-1.688;2023-02-28T10:48:40;8.40;99.90
28171;DHT22;15458;53.346;-1.688;2023-02-28T10:51:16;8.40;99.90
28171;DHT22;15458;53.346;-1.688;2023-02-28T11:01:45;8.00;99.90
28171;DHT22;15458;53.346;-1.688;2023-02-28T11:04:38;7.80;99.90
28171;DHT22;15458;53.346;-1.688;2023-02-28T11:07:18;7.70;99.90
28171;DHT22;15458;53.346;-1.688;2023-02-28T11:09:52;7.60;99.90
28171;DHT22;15458;53.346;-1.688;2023-02-28T11:12:27;7.60;99.90
28171;DHT22;15458;53.346;-1.688;2023-02-28T11:17:36;7.90;99.90
28171;DHT22;15458;53.346;-1.688;2023-02-28T11:20:07;8.30;99.90
28171;DHT22;15458;53.346;-1.688;2023-02-28T11:22:43;8.50;99.90
28171;DHT22;15458;53.346;-1.688;2023-02-28T11:25:21;8.50;99.90
28171;DHT22;15458;53.346;-1.688;2023-02-28T11:27:53;8.40;99.90
28171;DHT22;15458;53.346;-1.688;2023-02-28T11:30:40;8.20;99.90
28171;DHT22;15458;53.346;-1.688;2023-02-28T11:33:30;8.00;99.90
28171;DHT22;15458;53.346;-1.688;2023-02-28T11:36:21;7.80;99.90
28171;DHT22;15458;53.346;-1.688;2023-02-28T11:38:50;7.70;99.90
28171;DHT22;15458;53.346;-1.688;2023-02-28T11:41:27;7.70;99.90
28171;DHT22;15458;53.346;-1.688;2023-02-28T11:47:19;7.80;99.90
28171;DHT22;15458;53.346;-1.688;2023-02-28T12:05:44;8.30;99.90
28171;DHT22;15458;53.346;-1.688;2023-02-28T12:08:44;8.30;99.90
28171;DHT22;15458;53.346;-1.688;2023-02-28T12:19:48;8.30;99.90
28171;DHT22;15458;53.346;-1.688;2023-02-28T12:25:18;8.40;99.90
28171;DHT22;15458;53.346;-1.688;2023-02-28T12:27:47;8.60;99.90
28171;DHT22;15458;53.346;-1.688;2023-02-28T12:30:21;8.70;99.90
28171;DHT22;15458;53.346;-1.688;2023-02-28T12:32:55;8.80;99.90
28171;DHT22;15458;53.346;-1.688;2023-02-28T12:35:32;8.70;99.90
28171;DHT22;15458;53.346;-1.688;2023-02-28T12:38:12;8.60;99.90
28171;DHT22;15458;53.346;-1.688;2023-02-28T12:40:56;8.40;99.90
28171;DHT22;15458;53.346;-1.688;2023-02-28T12:43:30;8.40;99.90
28171;DHT22;15458;53.346;-1.688;2023-02-28T12:48:40;8.70;99.90
28171;DHT22;15458;53.346;-1.688;2023-02-28T12:51:08;8.80;99.90
28171;DHT22;15458;53.346;-1.688;2023-02-28T12:53:54;9.00;99.90
28171;DHT22;15458;53.346;-1.688;2023-02-28T12:59:13;9.20;99.90
28171;DHT22;15458;53.346;-1.688;2023-02-28T13:02:09;9.30;99.90
28171;DHT22;15458;53.346;-1.688;2023-02-28T13:10:00;9.10;99.90
28171;DHT22;15458;53.346;-1.688;2023-02-28T13:12:27;9.00;99.90
28171;DHT22;15458;53.346;-1.688;2023-02-28T13:15:08;8.80;99.90
28171;DHT22;15458;53.346;-1.688;2023-02-28T13:17:39;8.60;99.90
28171;DHT22;15458;53.346;-1.688;2023-02-28T13:20:19;8.50;99.90
28171;DHT22;15458;53.346;-1.688;2023-02-28T13:22:48;8.40;99.90
28171;DHT22;15458;53.346;-1.688;2023-02-28T13:28:12;8.30;99.90
28171;DHT22;15458;53.346;-1.688;2023-02-28T13:33:31;8.10;99.90
28171;DHT22;15458;53.346;-1.688;2023-02-28T13:39:45;8.10;99.90
28171;DHT22;15458;53.346;-1.688;2023-02-28T13:46:34;8.10;99.90
28171;DHT22;15458;53.346;-1.688;2023-02-28T13:51:47;7.90;99.90
28171;DHT22;15458;53.346;-1.688;2023-02-28T14:02:21;7.50;99.90
28171;DHT22;15458;53.346;-1.688;2023-02-28T14:05:06;7.40;99.90
28171;DHT22;15458;53.346;-1.688;2023-02-28T14:07:50;7.40;99.90
28171;DHT22;15458;53.346;-1.688;2023-02-28T14:10:26;7.40;99.90
28171;DHT22;15458;53.346;-1.688;2023-02-28T14:15:59;7.40;99.90
28171;DHT22;15458;53.346;-1.688;2023-02-28T14:18:34;7.30;99.90
28171;DHT22;15458;53.346;-1.688;2023-02-28T14:23:55;7.40;99.90
28171;DHT22;15458;53.346;-1.688;2023-02-28T14:32:35;7.40;99.90
28171;DHT22;15458;53.346;-1.688;2023-02-28T14:35:29;7.30;99.90
28171;DHT22;15458;53.346;-1.688;2023-02-28T14:38:05;7.30;99.90
28171;DHT22;15458;53.346;-1.688;2023-02-28T14:40:35;7.20;99.90
28171;DHT22;15458;53.346;-1.688;2023-02-28T14:43:22;7.20;99.90
28171;DHT22;15458;53.346;-1.688;2023-02-28T14:45:58;7.10;99.90
28171;DHT22;15458;53.346;-1.688;2023-02-28T14:48:26;7.10;99.90
28171;DHT22;15458;53.346;-1.688;2023-02-28T14:51:00;7.00;99.90
28171;DHT22;15458;53.346;-1.688;2023-02-28T14:53:29;7.00;99.90
28171;DHT22;15458;53.346;-1.688;2023-02-28T14:55:55;7.00;99.90
28171;DHT22;15458;53.346;-1.688;2023-02-28T14:58:27;7.00;99.90
28171;DHT22;15458;53.346;-1.688;2023-02-28T15:00:58;7.10;99.90
28171;DHT22;15458;53.346;-1.688;2023-02-28T15:03:29;7.10;99.90
28171;DHT22;15458;53.346;-1.688;2023-02-28T15:06:00;7.10;99.90
28171;DHT22;15458;53.346;-1.688;2023-02-28T15:08:28;7.00;99.90
28171;DHT22;15458;53.346;-1.688;2023-02-28T15:11:01;7.00;99.90
28171;DHT22;15458;53.346;-1.688;2023-02-28T15:13:37;7.00;99.90
28171;DHT22;15458;53.346;-1.688;2023-02-28T15:16:28;7.00;99.90
28171;DHT22;15458;53.346;-1.688;2023-02-28T15:19:24;7.00;99.90
28171;DHT22;15458;53.346;-1.688;2023-02-28T15:22:04;7.00;99.90
28171;DHT22;15458;53.346;-1.688;2023-02-28T15:24:35;7.00;99.90
28171;DHT22;15458;53.346;-1.688;2023-02-28T15:27:03;7.00;99.90
28171;DHT22;15458;53.346;-1.688;2023-02-28T15:29:30;7.00;99.90
28171;DHT22;15458;53.346;-1.688;2023-02-28T15:32:01;7.10;99.90
28171;DHT22;15458;53.346;-1.688;2023-02-28T15:34:39;7.10;99.90
28171;DHT22;15458;53.346;-1.688;2023-02-28T15:37:56;7.10;99.90
28171;DHT22;15458;53.346;-1.688;2023-02-28T15:40:29;7.10;99.90
28171;DHT22;15458;53.346;-1.688;2023-02-28T15:43:04;7.10;99.90
28171;DHT22;15458;53.346;-1.688;2023-02-28T15:45:38;7.10;99.90
28171;DHT22;15458;53.346;-1.688;2023-02-28T15:48:16;7.00;99.90
28171;DHT22;15458;53.346;-1.688;2023-02-28T15:50:43;7.00;99.90
28171;DHT22;15458;53.346;-1.688;2023-02-28T15:53:21;7.00;99.90
28171;DHT22;15458;53.346;-1.688;2023-02-28T15:56:15;7.00;99.90
28171;DHT22;15458;53.346;-1.688;2023-02-28T15:58:45;7.00;99.90
28171;DHT22;15458;53.346;-1.688;2023-02-28T16:01:40;7.00;99.90
28171;DHT22;15458;53.346;-1.688;2023-02-28T16:04:17;7.00;99.90
28171;DHT22;15458;53.346;-1.688;2023-02-28T16:09:15;6.90;99.90
28171;DHT22;15458;53.346;-1.688;2023-02-28T16:11:52;6.90;99.90
28171;DHT22;15458;53.346;-1.688;2023-02-28T16:14:26;6.80;99.90
28171;DHT22;15458;53.346;-1.688;2023-02-28T16:17:02;6.80;99.90
28171;DHT22;15458;53.346;-1.688;2023-02-28T16:19:28;6.80;99.90
28171;DHT22;15458;53.346;-1.688;2023-02-28T16:21:54;6.80;99.90
28171;DHT22;15458;53.346;-1.688;2023-02-28T16:24:20;6.80;99.90
28171;DHT22;15458;53.346;-1.688;2023-02-28T16:26:47;6.80;99.90
28171;DHT22;15458;53.346;-1.688;2023-02-28T16:29:19;6.70;99.90
28171;DHT22;15458;53.346;-1.688;2023-02-28T16:31:48;6.70;99.90
28171;DHT22;15458;53.346;-1.688;2023-02-28T16:34:14;6.60;99.90
28171;DHT22;15458;53.346;-1.688;2023-02-28T16:36:40;6.70;99.90
28171;DHT22;15458;53.346;-1.688;2023-02-28T16:39:06;6.70;99.90
28171;DHT22;15458;53.346;-1.688;2023-02-28T16:41:34;6.60;99.90
28171;DHT22;15458;53.346;-1.688;2023-02-28T16:44:00;6.50;99.90
28171;DHT22;15458;53.346;-1.688;2023-02-28T16:46:44;6.60;99.90
28171;DHT22;15458;53.346;-1.688;2023-02-28T16:49:11;6.60;99.90
28171;DHT22;15458;53.346;-1.688;2023-02-28T16:51:38;6.60;99.90
28171;DHT22;15458;53.346;-1.688;2023-02-28T16:54:03;6.60;99.90
28171;DHT22;15458;53.346;-1.688;2023-02-28T16:56:29;6.50;99.90
28171;DHT22;15458;53.346;-1.688;2023-02-28T16:58:59;6.50;99.90
28171;DHT22;15458;53.346;-1.688;2023-02-28T17:01:26;6.50;99.90
28171;DHT22;15458;53.346;-1.688;2023-02-28T17:03:52;6.50;99.90
28171;DHT22;15458;53.346;-1.688;2023-02-28T17:06:27;6.50;99.90
28171;DHT22;15458;53.346;-1.688;2023-02-28T17:08:57;6.40;99.90
28171;DHT22;15458;53.346;-1.688;2023-02-28T17:11:25;6.30;99.90
28171;DHT22;15458;53.346;-1.688;2023-02-28T17:13:51;6.30;99.90
28171;DHT22;15458;53.346;-1.688;2023-02-28T17:16:32;6.30;99.90
28171;DHT22;15458;53.346;-1.688;2023-02-28T17:19:03;6.30;99.90
28171;DHT22;15458;53.346;-1.688;2023-02-28T17:21:30;6.20;99.90
28171;DHT22;15458;53.346;-1.688;2023-02-28T17:23:56;6.20;99.90
28171;DHT22;15458;53.346;-1.688;2023-02-28T17:26:22;6.20;99.90
28171;DHT22;15458;53.346;-1.688;2023-02-28T17:28:52;6.20;99.90
28171;DHT22;15458;53.346;-1.688;2023-02-28T17:31:21;6.20;99.90
28171;DHT22;15458;53.346;-1.688;2023-02-28T17:33:49;6.10;99.90
28171;DHT22;15458;53.346;-1.688;2023-02-28T17:36:21;6.10;99.90
28171;DHT22;15458;53.346;-1.688;2023-02-28T17:38:48;6.10;99.90
28171;DHT22;15458;53.346;-1.688;2023-02-28T17:41:14;6.00;99.90
28171;DHT22;15458;53.346;-1.688;2023-02-28T17:43:40;6.00;99.90
28171;DHT22;15458;53.346;-1.688;2023-02-28T17:46:15;6.00;99.90
28171;DHT22;15458;53.346;-1.688;2023-02-28T17:48:44;5.90;99.90
28171;DHT22;15458;53.346;-1.688;2023-02-28T17:51:18;5.90;99.90
28171;DHT22;15458;53.346;-1.688;2023-02-28T17:53:47;5.90;99.90
28171;DHT22;15458;53.346;-1.688;2023-02-28T17:56:22;5.90;99.90
28171;DHT22;15458;53.346;-1.688;2023-02-28T17:58:52;5.90;99.90
28171;DHT22;15458;53.346;-1.688;2023-02-28T18:01:19;5.80;99.90
28171;DHT22;15458;53.346;-1.688;2023-02-28T18:03:46;5.90;99.90
28171;DHT22;15458;53.346;-1.688;2023-02-28T18:06:25;5.90;99.90
28171;DHT22;15458;53.346;-1.688;2023-02-28T18:08:53;5.90;99.90
28171;DHT22;15458;53.346;-1.688;2023-02-28T18:11:22;5.90;99.90
28171;DHT22;15458;53.346;-1.688;2023-02-28T18:13:50;5.90;99.90
28171;DHT22;15458;53.346;-1.688;2023-02-28T18:16:18;5.90;99.90
28171;DHT22;15458;53.346;-1.688;2023-02-28T18:18:44;5.90;99.90
28171;DHT22;15458;53.346;-1.688;2023-02-28T18:21:11;6.00;99.90
28171;DHT22;15458;53.346;-1.688;2023-02-28T18:23:37;6.00;99.90
28171;DHT22;15458;53.346;-1.688;2023-02-28T18:26:09;6.00;99.90
28171;DHT22;15458;53.346;-1.688;2023-02-28T18:28:35;6.00;99.90
28171;DHT22;15458;53.346;-1.688;2023-02-28T18:31:08;5.90;99.90
28171;DHT22;15458;53.346;-1.688;2023-02-28T18:33:35;5.90;99.90
28171;DHT22;15458;53.346;-1.688;2023-02-28T18:36:01;5.90;99.90
28171;DHT22;15458;53.346;-1.688;2023-02-28T18:38:31;5.80;99.90
28171;DHT22;15458;53.346;-1.688;2023-02-28T18:41:02;5.70;99.90
28171;DHT22;15458;53.346;-1.688;2023-02-28T18:43:30;5.70;99.90
28171;DHT22;15458;53.346;-1.688;2023-02-28T18:45:56;5.70;99.90
28171;DHT22;15458;53.346;-1.688;2023-02-28T18:48:22;5.60;99.90
28171;DHT22;15458;53.346;-1.688;2023-02-28T18:50:51;5.60;99.90
28171;DHT22;15458;53.346;-1.688;2023-02-28T18:53:17;5.60;99.90
28171;DHT22;15458;53.346;-1.688;2023-02-28T18:55:43;5.60;99.90
28171;DHT22;15458;53.346;-1.688;2023-02-28T18:58:11;5.60;99.90
28171;DHT22;15458;53.346;-1.688;2023-02-28T19:00:37;5.60;99.90
28171;DHT22;15458;53.346;-1.688;2023-02-28T19:03:06;5.60;99.90
28171;DHT22;15458;53.346;-1.688;2023-02-28T19:05:40;5.60;99.90
28171;DHT22;15458;53.346;-1.688;2023-02-28T19:08:09;5.60;99.90
28171;DHT22;15458;53.346;-1.688;2023-02-28T19:10:57;5.50;99.90
28171;DHT22;15458;53.346;-1.688;2023-02-28T19:13:27;5.60;99.90
28171;DHT22;15458;53.346;-1.688;2023-02-28T19:16:04;5.50;99.90
28171;DHT22;15458;53.346;-1.688;2023-02-28T19:18:30;5.50;99.90
28171;DHT22;15458;53.346;-1.688;2023-02-28T19:20:55;5.60;99.90
28171;DHT22;15458;53.346;-1.688;2023-02-28T19:23:21;5.60;99.90
28171;DHT22;15458;53.346;-1.688;2023-02-28T19:25:47;5.70;99.90
28171;DHT22;15458;53.346;-1.688;2023-02-28T19:28:12;5.70;99.90
28171;DHT22;15458;53.346;-1.688;2023-02-28T19:30:38;5.70;99.90
28171;DHT22;15458;53.346;-1.688;2023-02-28T19:33:05;5.70;99.90
28171;DHT22;15458;53.346;-1.688;2023-02-28T19:35:33;5.70;99.90
28171;DHT22;15458;53.346;-1.688;2023-02-28T19:37:59;5.70;99.90
28171;DHT22;15458;53.346;-1.688;2023-02-28T19:40:25;5.70;99.90
28171;DHT22;15458;53.346;-1.688;2023-02-28T19:42:50;5.70;99.90
28171;DHT22;15458;53.346;-1.688;2023-02-28T19:45:16;5.70;99.90
28171;DHT22;15458;53.346;-1.688;2023-02-28T19:47:42;5.70;99.90
28171;DHT22;15458;53.346;-1.688;2023-02-28T19:50:12;5.70;99.90
28171;DHT22;15458;53.346;-1.688;2023-02-28T19:52:38;5.70;99.90
28171;DHT22;15458;53.346;-1.688;2023-02-28T19:55:06;5.70;99.90
28171;DHT22;15458;53.346;-1.688;2023-02-28T19:57:32;5.60;99.90
28171;DHT22;15458;53.346;-1.688;2023-02-28T19:59:57;5.60;99.90
28171;DHT22;15458;53.346;-1.688;2023-02-28T20:02:23;5.60;99.90
28171;DHT22;15458;53.346;-1.688;2023-02-28T20:04:50;5.60;99.90
28171;DHT22;15458;53.346;-1.688;2023-02-28T20:07:23;5.60;99.90
28171;DHT22;15458;53.346;-1.688;2023-02-28T20:09:49;5.50;99.90
28171;DHT22;15458;53.346;-1.688;2023-02-28T20:12:15;5.50;99.90
28171;DHT22;15458;53.346;-1.688;2023-02-28T20:14:42;5.50;99.90
28171;DHT22;15458;53.346;-1.688;2023-02-28T20:17:08;5.50;99.90
28171;DHT22;15458;53.346;-1.688;2023-02-28T20:19:34;5.50;99.90
28171;DHT22;15458;53.346;-1.688;2023-02-28T20:22:00;5.40;99.90
28171;DHT22;15458;53.346;-1.688;2023-02-28T20:24:29;5.40;99.90
28171;DHT22;15458;53.346;-1.688;2023-02-28T20:26:55;5.40;99.90
28171;DHT22;15458;53.346;-1.688;2023-02-28T20:29:22;5.40;99.90
28171;DHT22;15458;53.346;-1.688;2023-02-28T20:31:48;5.30;99.90
28171;DHT22;15458;53.346;-1.688;2023-02-28T20:34:14;5.30;99.90
28171;DHT22;15458;53.346;-1.688;2023-02-28T20:36:44;5.30;99.90
28171;DHT22;15458;53.346;-1.688;2023-02-28T20:39:10;5.30;99.90
28171;DHT22;15458;53.346;-1.688;2023-02-28T20:41:36;5.30;99.90
28171;DHT22;15458;53.346;-1.688;2023-02-28T20:44:02;5.30;99.90
28171;DHT22;15458;53.346;-1.688;2023-02-28T20:46:29;5.30;99.90
28171;DHT22;15458;53.346;-1.688;2023-02-28T20:48:56;5.30;99.90
28171;DHT22;15458;53.346;-1.688;2023-02-28T20:51:22;5.30;99.90
28171;DHT22;15458;53.346;-1.688;2023-02-28T20:53:48;5.30;99.90
28171;DHT22;15458;53.346;-1.688;2023-02-28T20:56:16;5.30;99.90
28171;DHT22;15458;53.346;-1.688;2023-02-28T20:58:44;5.20;99.90
28171;DHT22;15458;53.346;-1.688;2023-02-28T21:01:18;5.20;99.90
28171;DHT22;15458;53.346;-1.688;2023-02-28T21:03:55;5.20;99.90
28171;DHT22;15458;53.346;-1.688;2023-02-28T21:06:27;5.20;99.90
28171;DHT22;15458;53.346;-1.688;2023-02-28T21:08:53;5.10;99.90
28171;DHT22;15458;53.346;-1.688;2023-02-28T21:11:25;5.10;99.90
28171;DHT22;15458;53.346;-1.688;2023-02-28T21:13:52;5.10;99.90
28171;DHT22;15458;53.346;-1.688;2023-02-28T21:16:24;5.10;99.90
28171;DHT22;15458;53.346;-1.688;2023-02-28T21:18:50;5.10;99.90
28171;DHT22;15458;53.346;-1.688;2023-02-28T21:21:19;5.10;99.90
28171;DHT22;15458;53.346;-1.688;2023-02-28T21:23:46;5.10;99.90
28171;DHT22;15458;53.346;-1.688;2023-02-28T21:26:17;5.10;99.90
28171;DHT22;15458;53.346;-1.688;2023-02-28T21:28:48;5.10;99.90
28171;DHT22;15458;53.346;-1.688;2023-02-28T21:31:18;5.10;99.90
28171;DHT22;15458;53.346;-1.688;2023-02-28T21:33:48;5.10;99.90
28171;DHT22;15458;53.346;-1.688;2023-02-28T21:36:16;5.10;99.90
28171;DHT22;15458;53.346;-1.688;2023-02-28T21:38:43;5.10;99.90
28171;DHT22;15458;53.346;-1.688;2023-02-28T21:41:17;5.10;99.90
28171;DHT22;15458;53.346;-1.688;2023-02-28T21:43:44;5.10;99.90
28171;DHT22;15458;53.346;-1.688;2023-02-28T21:46:13;5.10;99.90
28171;DHT22;15458;53.346;-1.688;2023-02-28T21:48:40;5.10;99.90
28171;DHT22;15458;53.346;-1.688;2023-02-28T21:51:10;5.10;99.90
28171;DHT22;15458;53.346;-1.688;2023-02-28T21:53:37;5.00;99.90
28171;DHT22;15458;53.346;-1.688;2023-02-28T21:56:10;5.10;99.90
28171;DHT22;15458;53.346;-1.688;2023-02-28T21:58:36;5.00;99.90
28171;DHT22;15458;53.346;-1.688;2023-02-28T22:01:09;5.00;99.90
28171;DHT22;15458;53.346;-1.688;2023-02-28T22:03:35;5.00;99.90
28171;DHT22;15458;53.346;-1.688;2023-02-28T22:06:11;5.10;99.90
28171;DHT22;15458;53.346;-1.688;2023-02-28T22:08:41;5.10;99.90
28171;DHT22;15458;53.346;-1.688;2023-02-28T22:11:08;5.10;99.90
28171;DHT22;15458;53.346;-1.688;2023-02-28T22:13:37;5.10;99.90
28171;DHT22;15458;53.346;-1.688;2023-02-28T22:16:09;5.20;99.90
28171;DHT22;15458;53.346;-1.688;2023-02-28T22:18:35;5.20;99.90
28171;DHT22;15458;53.346;-1.688;2023-02-28T22:21:02;5.20;99.90
28171;DHT22;15458;53.346;-1.688;2023-02-28T22:23:28;5.10;99.90
28171;DHT22;15458;53.346;-1.688;2023-02-28T22:25:59;5.10;99.90
28171;DHT22;15458;53.346;-1.688;2023-02-28T22:28:27;5.10;99.90
28171;DHT22;15458;53.346;-1.688;2023-02-28T22:30:54;5.10;99.90
28171;DHT22;15458;53.346;-1.688;2023-02-28T22:33:20;5.10;99.90
28171;DHT22;15458;53.346;-1.688;2023-02-28T22:35:49;5.10;99.90
28171;DHT22;15458;53.346;-1.688;2023-02-28T22:38:18;5.10;99.90
28171;DHT22;15458;53.346;-1.688;2023-02-28T22:40:44;5.10;99.90
28171;DHT22;15458;53.346;-1.688;2023-02-28T22:43:12;5.10;99.90
28171;DHT22;15458;53.346;-1.688;2023-02-28T22:45:39;5.00;99.90
28171;DHT22;15458;53.346;-1.688;2023-02-28T22:48:07;5.00;99.90
28171;DHT22;15458;53.346;-1.688;2023-02-28T22:50:33;5.00;99.90
28171;DHT22;15458;53.346;-1.688;2023-02-28T22:52:59;5.00;99.90
28171;DHT22;15458;53.346;-1.688;2023-02-28T22:55:25;5.00;99.90
28171;DHT22;15458;53.346;-1.688;2023-02-28T22:57:54;4.90;99.90
28171;DHT22;15458;53.346;-1.688;2023-02-28T23:00:20;4.90;99.90
28171;DHT22;15458;53.346;-1.688;2023-02-28T23:02:46;4.90;99.90
28171;DHT22;15458;53.346;-1.688;2023-02-28T23:05:15;4.90;99.90
28171;DHT22;15458;53.346;-1.688;2023-02-28T23:07:41;4.90;99.90
28171;DHT22;15458;53.346;-1.688;2023-02-28T23:10:11;4.90;99.90
28171;DHT22;15458;53.346;-1.688;2023-02-28T23:12:37;4.90;99.90
28171;DHT22;15458;53.346;-1.688;2023-02-28T23:15:18;4.90;99.90
28171;DHT22;15458;53.346;-1.688;2023-02-28T23:17:44;4.90;99.90
28171;DHT22;15458;53.346;-1.688;2023-02-28T23:20:12;4.90;99.90
28171;DHT22;15458;53.346;-1.688;2023-02-28T23:22:38;5.00;99.90
28171;DHT22;15458;53.346;-1.688;2023-02-28T23:25:04;4.90;99.90
28171;DHT22;15458;53.346;-1.688;2023-02-28T23:27:30;4.90;99.90
28171;DHT22;15458;53.346;-1.688;2023-02-28T23:29:56;4.90;99.90
28171;DHT22;15458;53.346;-1.688;2023-02-28T23:32:21;4.90;99.90
28171;DHT22;15458;53.346;-1.688;2023-02-28T23:34:48;4.90;99.90
28171;DHT22;15458;53.346;-1.688;2023-02-28T23:37:14;4.90;99.90
28171;DHT22;15458;53.346;-1.688;2023-02-28T23:39:40;4.90;99.90
28171;DHT22;15458;53.346;-1.688;2023-02-28T23:42:05;4.90;99.90
28171;DHT22;15458;53.346;-1.688;2023-02-28T23:44:32;4.90;99.90
28171;DHT22;15458;53.346;-1.688;2023-02-28T23:46:58;4.90;99.90
28171;DHT22;15458;53.346;-1.688;2023-02-28T23:49:23;4.90;99.90
28171;DHT22;15458;53.346;-1.688;2023-02-28T23:51:50;4.90;99.90
28171;DHT22;15458;53.346;-1.688;2023-02-28T23:54:18;4.90;99.90
28171;DHT22;15458;53.346;-1.688;2023-02-28T23:56:47;4.90;99.90
28171;DHT22;15458;53.346;-1.688;2023-02-28T23:59:13;4.90;99.90
